Stations météo

réclame
Mon MeteoGroup
Catanzaro, Italie (16365): Température de l'air & dewpoint: 09.12.2017 18:00:00 - 15.12.2017 18:00:00 (CET)Catanzaro, Italie (16365): Vitesse du vent: 09.12.2017 18:00:00 - 15.12.2017 18:00:00 (CET)Catanzaro, Italie (16365): Direction du vent: 09.12.2017 18:00:00 - 15.12.2017 18:00:00 (CET)Catanzaro, Italie (16365): reduced air pressure: 09.12.2017 18:00:00 - 15.12.2017 18:00:00 (CET)Catanzaro, Italie (16365): Quantités de précipitations: 09.12.2017 18:00:00 - 15.12.2017 18:00:00 (CET)
Date & Time tt [°C] td [°C] ff [km/h] ff [knt] dd ppp [hPa] rr [mm]
15.12.2017 18:00:00 - - - - - - -
15.12.2017 17:00:00 13,2 2,0 0 0 N 1009,3 -
15.12.2017 16:00:00 14,2 2,0 9 5 WSW 1009,6 -
15.12.2017 15:00:00 14,3 2,4 13 7 W 1010,1 -
15.12.2017 14:00:00 14,1 2,9 13 7 W 1010,7 -
15.12.2017 13:00:00 13,4 2,2 21 11 WNW 1010,9 0,0
15.12.2017 12:00:00 13,1 3,6 22 12 W 1012,5 -
15.12.2017 11:00:00 12,5 5,8 24 13 W 1013,4 -
15.12.2017 10:00:00 11,6 6,7 18 10 SSE 1013,9 -
15.12.2017 09:00:00 11,0 6,7 22 12 W 1014,0 -
15.12.2017 08:00:00 10,4 6,5 16 9 WNW 1014,0 -
15.12.2017 07:00:00 10,3 7,0 9 5 WNW 1014,3 -
15.12.2017 06:00:00 10,4 7,1 13 7 WNW 1014,7 -
15.12.2017 05:00:00 10,6 7,3 18 10 W 1014,8 -
15.12.2017 04:00:00 10,7 7,4 13 7 W 1015,2 -
15.12.2017 03:00:00 10,6 7,3 9 5 W 1016,0 -
15.12.2017 02:00:00 10,6 7,3 15 8 W 1016,3 -
15.12.2017 01:00:00 10,6 6,7 26 14 WNW 1016,2 -
15.12.2017 00:00:00 10,8 6,1 26 14 WNW 1016,3 -
14.12.2017 23:00:00 10,8 6,7 24 13 NW 1017,2 -
14.12.2017 22:00:00 10,9 6,8 21 11 NW 1017,5 -
14.12.2017 21:00:00 10,3 7,3 11 6 NW 1017,9 -
14.12.2017 20:00:00 10,1 6,2 26 14 NW 1018,1 -
14.12.2017 19:00:00 10,3 6,2 31 17 NW 1017,7 0,0
14.12.2017 18:00:00 10,1 6,9 21 11 NW 1017,8 -
14.12.2017 17:00:00 10,7 6,2 28 15 WNW 1017,4 -
14.12.2017 16:00:00 11,0 4,8 21 11 WNW 1017,2 -
14.12.2017 15:00:00 11,6 3,5 11 6 W 1017,1 -
14.12.2017 14:00:00 11,4 1,5 22 12 SE 1017,1 -
14.12.2017 13:00:00 11,4 3,6 21 11 W 1017,5 0,0
14.12.2017 12:00:00 11,5 3,9 26 14 NE 1018,5 -
14.12.2017 11:00:00 11,0 6,5 21 11 WNW 1019,0 -
14.12.2017 10:00:00 10,0 6,5 18 10 WNW 1019,6 -
14.12.2017 09:00:00 10,9 2,4 31 17 WNW 1019,5 -
14.12.2017 08:00:00 10,8 1,0 4 2 NE 1019,5 -
14.12.2017 07:00:00 10,7 0,6 31 17 ENE 1018,8 0,0
14.12.2017 06:00:00 10,3 1,0 13 7 NE 1019,0 -
14.12.2017 05:00:00 10,5 1,7 15 8 W 1018,6 -
14.12.2017 04:00:00 10,8 1,8 11 6 WNW 1018,9 -
14.12.2017 03:00:00 10,9 2,6 11 6 NW 1018,9 -
14.12.2017 02:00:00 10,6 2,8 11 6 WNW 1019,1 -
14.12.2017 01:00:00 10,5 6,2 18 10 N 1019,2 0,0
14.12.2017 00:00:00 10,5 6,6 18 10 W 1019,5 -
13.12.2017 23:00:00 10,8 6,9 11 6 WNW 1020,2 -
13.12.2017 22:00:00 11,0 5,9 21 11 W 1020,4 -
13.12.2017 21:00:00 11,3 6,8 21 11 W 1020,0 -
13.12.2017 20:00:00 12,6 7,0 9 5 SSW 1020,0 -
13.12.2017 19:00:00 12,8 7,8 21 11 W 1019,7 0,0
13.12.2017 18:00:00 12,9 9,9 21 11 W 1019,4 -
13.12.2017 17:00:00 13,0 7,6 15 8 SSE 1019,2 -
13.12.2017 16:00:00 13,7 6,5 22 12 W 1019,3 -
13.12.2017 15:00:00 14,4 5,1 22 12 WNW 1019,0 -
13.12.2017 14:00:00 15,2 6,1 15 8 W 1019,1 -
13.12.2017 13:00:00 15,2 5,0 16 9 WNW 1019,8 0,0
13.12.2017 12:00:00 16,1 4,7 9 5 W 1019,9 -
13.12.2017 11:00:00 15,4 3,4 16 9 W 1020,8 -
13.12.2017 10:00:00 15,1 3,8 15 8 W 1021,2 -
13.12.2017 09:00:00 14,3 3,0 24 13 WNW 1020,9 -
13.12.2017 08:00:00 13,3 1,5 15 8 WNW 1020,9 -
13.12.2017 07:00:00 13,9 1,1 22 12 NW 1020,2 0,0
13.12.2017 06:00:00 13,9 1,1 16 9 NW 1020,0 -
13.12.2017 05:00:00 13,5 1,1 11 6 NW 1019,7 -
13.12.2017 04:00:00 13,7 1,2 8 4 WNW 1019,7 -
13.12.2017 03:00:00 14,2 1,4 9 5 NW 1020,0 -
13.12.2017 02:00:00 14,4 2,2 9 5 NW 1020,1 -
13.12.2017 01:00:00 13,6 2,4 11 6 WNW 1020,4 0,0
13.12.2017 00:00:00 14,1 2,6 4 2 WNW 1020,5 -
12.12.2017 23:00:00 14,0 3,6 5 3 NW 1020,8 -
12.12.2017 22:00:00 13,9 4,9 8 4 NW 1020,8 -
12.12.2017 21:00:00 13,4 5,0 4 2 NNW 1020,9 -
12.12.2017 20:00:00 13,1 5,2 0 0 N 1020,7 -
12.12.2017 19:00:00 13,5 5,1 2 1 ESE 1020,5 0,0
12.12.2017 18:00:00 14,4 5,1 2 1 NW 1019,8 -
12.12.2017 17:00:00 14,6 5,3 5 3 NW 1019,4 -
12.12.2017 16:00:00 15,8 5,0 11 6 N 1018,8 -
12.12.2017 15:00:00 16,6 4,5 9 5 W 1018,4 -
12.12.2017 14:00:00 16,4 5,0 5 3 SSW 1018,1 -
12.12.2017 13:00:00 15,8 5,3 15 8 S 1018,2 0,0
12.12.2017 12:00:00 15,5 5,0 4 2 S 1018,7 -
12.12.2017 11:00:00 14,5 4,7 8 4 S 1019,2 -
12.12.2017 10:00:00 14,7 4,6 4 2 SW 1019,3 -
12.12.2017 09:00:00 14,1 4,8 0 0 N 1018,8 -
12.12.2017 08:00:00 12,6 4,0 5 3 WNW 1018,6 -
12.12.2017 07:00:00 11,3 4,4 5 3 N 1018,2 0,0
12.12.2017 06:00:00 11,3 4,7 5 3 N 1017,6 -
12.12.2017 05:00:00 10,8 5,5 4 2 N 1017,2 -
12.12.2017 04:00:00 11,0 6,7 4 2 NNW 1017,0 -
12.12.2017 03:00:00 11,0 7,1 0 0 N 1017,3 -
12.12.2017 02:00:00 10,8 7,1 5 3 NNE 1017,0 -
12.12.2017 01:00:00 11,3 8,1 5 3 NE 1016,8 0,0
12.12.2017 00:00:00 11,1 7,7 0 0 N 1017,0 -
11.12.2017 23:00:00 11,5 8,3 5 3 NE 1017,2 -
11.12.2017 22:00:00 11,8 8,2 5 3 N 1017,1 -
11.12.2017 21:00:00 12,1 8,9 2 1 WNW 1017,0 -
11.12.2017 20:00:00 12,6 9,6 5 3 SSW 1017,2 -
11.12.2017 19:00:00 12,8 10,0 4 2 SSE 1017,1 0,0
11.12.2017 18:00:00 12,9 10,4 5 3 S 1016,9 -
11.12.2017 17:00:00 12,7 10,7 16 9 S 1016,7 -
11.12.2017 16:00:00 13,0 9,6 22 12 S 1016,4 -
11.12.2017 15:00:00 13,2 9,4 15 8 S 1016,5 -
11.12.2017 14:00:00 13,3 7,9 8 4 ESE 1016,4 -
11.12.2017 13:00:00 12,7 6,0 8 4 SSE 1017,3 0,0
11.12.2017 12:00:00 12,8 2,8 0 0 N 1017,9 -
11.12.2017 11:00:00 12,3 1,5 4 2 NE 1018,5 -
11.12.2017 10:00:00 10,4 0,0 5 3 N 1019,2 -
11.12.2017 09:00:00 9,4 -1,2 4 2 WNW 1019,2 -
11.12.2017 08:00:00 8,5 -1,2 4 2 NW 1019,0 -
11.12.2017 07:00:00 7,9 -1,2 4 2 NW 1018,8 0,0
11.12.2017 06:00:00 7,0 -1,5 5 3 N 1018,7 -
11.12.2017 05:00:00 7,8 -1,0 2 1 NW 1018,8 -
11.12.2017 04:00:00 8,0 -0,3 4 2 NW 1019,0 -
11.12.2017 03:00:00 8,0 -0,6 0 0 N 1019,0 -
11.12.2017 02:00:00 8,1 0,2 4 2 N 1019,5 -
11.12.2017 01:00:00 8,3 2,0 2 1 NNW 1019,3 0,0
11.12.2017 00:00:00 8,0 2,8 11 6 WNW 1020,1 -
10.12.2017 23:00:00 8,1 3,1 8 4 WNW 1020,4 -
10.12.2017 22:00:00 8,1 2,9 9 5 NW 1020,6 -
10.12.2017 21:00:00 8,0 1,3 2 1 W 1020,5 -
10.12.2017 20:00:00 8,0 0,6 4 2 WSW 1020,6 -
10.12.2017 19:00:00 7,9 0,5 5 3 WSW 1020,4 0,0
10.12.2017 18:00:00 8,4 0,0 5 3 W 1020,2 -
10.12.2017 17:00:00 8,3 -0,6 9 5 WSW 1020,0 -
10.12.2017 16:00:00 9,2 -0,8 16 9 WSW 1019,3 -
10.12.2017 15:00:00 10,0 -0,9 16 9 W 1019,8 -
10.12.2017 14:00:00 10,1 -0,8 16 9 W 1020,0 -
10.12.2017 13:00:00 9,6 -0,4 8 4 WSW 1020,5 0,0
10.12.2017 12:00:00 9,5 0,6 13 7 SW 1020,8 -
10.12.2017 11:00:00 9,1 0,4 11 6 SSW 1021,5 -
10.12.2017 10:00:00 8,4 -0,2 8 4 S 1021,3 -
10.12.2017 09:00:00 7,1 -1,2 2 1 N 1020,8 -
10.12.2017 08:00:00 6,4 -1,6 5 3 WNW 1020,4 -
10.12.2017 07:00:00 6,4 -1,6 0 0 N 1019,8 0,0
10.12.2017 06:00:00 6,3 -1,2 0 0 N 1019,3 -
10.12.2017 05:00:00 7,4 -2,5 2 1 NNW 1018,2 -
10.12.2017 04:00:00 7,5 -1,3 4 2 ESE 1017,9 -
10.12.2017 03:00:00 7,1 -0,7 0 0 N 1017,5 -
10.12.2017 02:00:00 7,7 -0,6 5 3 N 1016,9 -
10.12.2017 01:00:00 7,7 -0,4 13 7 NW 1016,1 0,0
10.12.2017 00:00:00 7,7 -1,6 4 2 NW 1015,6 -
09.12.2017 23:00:00 8,3 -1,1 8 4 NW 1015,2 -
09.12.2017 22:00:00 8,4 -2,1 16 9 W 1013,8 -
09.12.2017 21:00:00 8,1 0,0 11 6 SE 1013,0 -
09.12.2017 20:00:00 9,3 -0,2 24 13 WNW 1012,2 -
09.12.2017 19:00:00 8,6 2,7 28 15 ESE 1011,9 -
09.12.2017 18:00:00 8,3 3,5 22 12 WNW 1011,7 -

tt = Température de l'air
td = dewpoint
ff = Vitesse du vent
dd = Direction du vent
ppp = reduced air pressure
rr = Quantités de précipitations

stations d'obs. à proximité